sensor_id;sensor_type;location;lat;lon;timestamp;temperature;humidity
5554;DHT22;2800;49.528;8.666;2022-12-17T00:02:21;-6.00;99.90
5554;DHT22;2800;49.528;8.666;2022-12-17T00:05:05;-6.00;99.90
5554;DHT22;2800;49.528;8.666;2022-12-17T00:07:59;-6.10;99.90
5554;DHT22;2800;49.528;8.666;2022-12-17T00:10:43;-6.10;99.90
5554;DHT22;2800;49.528;8.666;2022-12-17T00:13:27;-6.20;99.90
5554;DHT22;2800;49.528;8.666;2022-12-17T00:16:12;-6.20;99.90
5554;DHT22;2800;49.528;8.666;2022-12-17T00:18:56;-6.20;99.90
5554;DHT22;2800;49.528;8.666;2022-12-17T00:21:40;-6.30;99.90
5554;DHT22;2800;49.528;8.666;2022-12-17T00:24:24;-6.30;99.90
5554;DHT22;2800;49.528;8.666;2022-12-17T00:27:08;-6.30;99.90
5554;DHT22;2800;49.528;8.666;2022-12-17T00:29:52;-6.30;99.90
5554;DHT22;2800;49.528;8.666;2022-12-17T00:32:36;-6.30;99.90
5554;DHT22;2800;49.528;8.666;2022-12-17T00:35:20;-6.20;99.90
5554;DHT22;2800;49.528;8.666;2022-12-17T00:38:04;-6.20;99.90
5554;DHT22;2800;49.528;8.666;2022-12-17T00:40:51;-6.20;99.90
5554;DHT22;2800;49.528;8.666;2022-12-17T00:43:36;-6.20;99.90
5554;DHT22;2800;49.528;8.666;2022-12-17T00:46:20;-6.20;99.90
5554;DHT22;2800;49.528;8.666;2022-12-17T00:49:04;-6.20;99.90
5554;DHT22;2800;49.528;8.666;2022-12-17T00:51:48;-6.20;99.90
5554;DHT22;2800;49.528;8.666;2022-12-17T00:54:32;-6.20;99.90
5554;DHT22;2800;49.528;8.666;2022-12-17T00:57:16;-6.30;99.90
5554;DHT22;2800;49.528;8.666;2022-12-17T01:00:00;-6.20;99.90
5554;DHT22;2800;49.528;8.666;2022-12-17T01:02:44;-6.20;99.90
5554;DHT22;2800;49.528;8.666;2022-12-17T01:05:28;-6.30;99.90
5554;DHT22;2800;49.528;8.666;2022-12-17T01:08:14;-6.40;99.90
5554;DHT22;2800;49.528;8.666;2022-12-17T01:10:59;-6.50;99.90
5554;DHT22;2800;49.528;8.666;2022-12-17T01:13:44;-6.50;99.90
5554;DHT22;2800;49.528;8.666;2022-12-17T01:16:28;-6.50;99.90
5554;DHT22;2800;49.528;8.666;2022-12-17T01:19:12;-6.40;99.90
5554;DHT22;2800;49.528;8.666;2022-12-17T01:21:56;-6.50;99.90
5554;DHT22;2800;49.528;8.666;2022-12-17T01:24:40;-6.50;99.90
5554;DHT22;2800;49.528;8.666;2022-12-17T01:27:24;-6.60;99.90
5554;DHT22;2800;49.528;8.666;2022-12-17T01:30:08;-6.60;99.90
5554;DHT22;2800;49.528;8.666;2022-12-17T01:32:58;-6.50;99.90
5554;DHT22;2800;49.528;8.666;2022-12-17T01:35:43;-6.50;99.90
5554;DHT22;2800;49.528;8.666;2022-12-17T01:38:27;-6.60;99.90
5554;DHT22;2800;49.528;8.666;2022-12-17T01:41:11;-6.60;99.90
5554;DHT22;2800;49.528;8.666;2022-12-17T01:43:55;-6.60;99.90
5554;DHT22;2800;49.528;8.666;2022-12-17T01:46:42;-6.70;99.90
5554;DHT22;2800;49.528;8.666;2022-12-17T01:49:29;-6.70;99.90
5554;DHT22;2800;49.528;8.666;2022-12-17T01:52:14;-6.80;99.90
5554;DHT22;2800;49.528;8.666;2022-12-17T01:55:00;-6.80;99.90
5554;DHT22;2800;49.528;8.666;2022-12-17T01:57:44;-6.90;99.90
5554;DHT22;2800;49.528;8.666;2022-12-17T02:00:28;-6.80;99.90
5554;DHT22;2800;49.528;8.666;2022-12-17T02:03:17;-6.90;99.90
5554;DHT22;2800;49.528;8.666;2022-12-17T02:06:17;-6.80;99.90
5554;DHT22;2800;49.528;8.666;2022-12-17T02:09:24;-6.90;99.90
5554;DHT22;2800;49.528;8.666;2022-12-17T02:12:18;-6.90;99.90
5554;DHT22;2800;49.528;8.666;2022-12-17T02:15:12;-6.90;99.90
5554;DHT22;2800;49.528;8.666;2022-12-17T02:18:05;-6.90;99.90
5554;DHT22;2800;49.528;8.666;2022-12-17T02:20:53;-6.90;99.90
5554;DHT22;2800;49.528;8.666;2022-12-17T02:23:55;-6.80;99.90
5554;DHT22;2800;49.528;8.666;2022-12-17T02:26:51;-6.80;99.90
5554;DHT22;2800;49.528;8.666;2022-12-17T02:29:40;-6.80;99.90
5554;DHT22;2800;49.528;8.666;2022-12-17T02:32:25;-6.90;99.90
5554;DHT22;2800;49.528;8.666;2022-12-17T02:35:16;-6.90;99.90
5554;DHT22;2800;49.528;8.666;2022-12-17T02:38:00;-7.00;99.90
5554;DHT22;2800;49.528;8.666;2022-12-17T02:40:46;-6.90;99.90
5554;DHT22;2800;49.528;8.666;2022-12-17T02:43:31;-6.90;99.90
5554;DHT22;2800;49.528;8.666;2022-12-17T02:46:17;-6.90;99.90
5554;DHT22;2800;49.528;8.666;2022-12-17T02:49:03;-7.00;99.90
5554;DHT22;2800;49.528;8.666;2022-12-17T02:51:48;-7.00;99.90
5554;DHT22;2800;49.528;8.666;2022-12-17T02:54:52;-7.00;99.90
5554;DHT22;2800;49.528;8.666;2022-12-17T02:57:36;-7.00;99.90
5554;DHT22;2800;49.528;8.666;2022-12-17T03:00:20;-7.10;99.90
5554;DHT22;2800;49.528;8.666;2022-12-17T03:03:04;-7.10;99.90
5554;DHT22;2800;49.528;8.666;2022-12-17T03:05:48;-7.10;99.90
5554;DHT22;2800;49.528;8.666;2022-12-17T03:08:33;-7.00;99.90
5554;DHT22;2800;49.528;8.666;2022-12-17T03:11:17;-6.90;99.90
5554;DHT22;2800;49.528;8.666;2022-12-17T03:14:01;-6.90;99.90
5554;DHT22;2800;49.528;8.666;2022-12-17T03:16:45;-6.80;99.90
5554;DHT22;2800;49.528;8.666;2022-12-17T03:19:29;-6.90;99.90
5554;DHT22;2800;49.528;8.666;2022-12-17T03:22:12;-6.90;99.90
5554;DHT22;2800;49.528;8.666;2022-12-17T03:24:57;-7.00;99.90
5554;DHT22;2800;49.528;8.666;2022-12-17T03:27:40;-7.00;99.90
5554;DHT22;2800;49.528;8.666;2022-12-17T03:30:25;-6.90;99.90
5554;DHT22;2800;49.528;8.666;2022-12-17T03:33:09;-7.00;99.90
5554;DHT22;2800;49.528;8.666;2022-12-17T03:35:53;-7.00;99.90
5554;DHT22;2800;49.528;8.666;2022-12-17T03:38:37;-7.10;99.90
5554;DHT22;2800;49.528;8.666;2022-12-17T03:41:21;-7.10;99.90
5554;DHT22;2800;49.528;8.666;2022-12-17T03:44:05;-7.00;99.90
5554;DHT22;2800;49.528;8.666;2022-12-17T03:46:49;-7.10;99.90
5554;DHT22;2800;49.528;8.666;2022-12-17T03:49:33;-7.20;99.90
5554;DHT22;2800;49.528;8.666;2022-12-17T03:52:17;-7.30;99.90
5554;DHT22;2800;49.528;8.666;2022-12-17T03:55:01;-7.30;99.90
5554;DHT22;2800;49.528;8.666;2022-12-17T03:57:46;-7.30;99.90
5554;DHT22;2800;49.528;8.666;2022-12-17T04:00:29;-7.30;99.90
5554;DHT22;2800;49.528;8.666;2022-12-17T04:03:14;-7.30;99.90
5554;DHT22;2800;49.528;8.666;2022-12-17T04:05:58;-7.30;99.90
5554;DHT22;2800;49.528;8.666;2022-12-17T04:08:42;-7.30;99.90
5554;DHT22;2800;49.528;8.666;2022-12-17T04:11:26;-7.30;99.90
5554;DHT22;2800;49.528;8.666;2022-12-17T04:14:10;-7.30;99.90
5554;DHT22;2800;49.528;8.666;2022-12-17T04:16:54;-7.20;99.90
5554;DHT22;2800;49.528;8.666;2022-12-17T04:19:48;-7.20;99.90
5554;DHT22;2800;49.528;8.666;2022-12-17T04:22:32;-7.10;99.90
5554;DHT22;2800;49.528;8.666;2022-12-17T04:25:16;-7.10;99.90
5554;DHT22;2800;49.528;8.666;2022-12-17T04:28:20;-7.10;99.90
5554;DHT22;2800;49.528;8.666;2022-12-17T04:31:05;-7.10;99.90
5554;DHT22;2800;49.528;8.666;2022-12-17T04:33:49;-7.10;99.90
5554;DHT22;2800;49.528;8.666;2022-12-17T04:36:33;-7.20;99.90
5554;DHT22;2800;49.528;8.666;2022-12-17T04:39:17;-7.20;99.90
5554;DHT22;2800;49.528;8.666;2022-12-17T04:42:01;-7.40;99.90
5554;DHT22;2800;49.528;8.666;2022-12-17T04:44:45;-7.50;99.90
5554;DHT22;2800;49.528;8.666;2022-12-17T04:47:29;-7.60;99.90
5554;DHT22;2800;49.528;8.666;2022-12-17T04:50:13;-7.60;99.90
5554;DHT22;2800;49.528;8.666;2022-12-17T04:53:02;-7.50;99.90
5554;DHT22;2800;49.528;8.666;2022-12-17T04:55:47;-7.40;99.90
5554;DHT22;2800;49.528;8.666;2022-12-17T04:58:31;-7.50;99.90
5554;DHT22;2800;49.528;8.666;2022-12-17T05:01:15;-7.50;99.90
5554;DHT22;2800;49.528;8.666;2022-12-17T05:03:59;-7.50;99.90
5554;DHT22;2800;49.528;8.666;2022-12-17T05:06:44;-7.50;99.90
5554;DHT22;2800;49.528;8.666;2022-12-17T05:09:28;-7.50;99.90
5554;DHT22;2800;49.528;8.666;2022-12-17T05:12:12;-7.40;99.90
5554;DHT22;2800;49.528;8.666;2022-12-17T05:15:13;-7.30;99.90
5554;DHT22;2800;49.528;8.666;2022-12-17T05:18:13;-7.40;99.90
5554;DHT22;2800;49.528;8.666;2022-12-17T05:20:57;-7.40;99.90
5554;DHT22;2800;49.528;8.666;2022-12-17T05:23:41;-7.50;99.90
5554;DHT22;2800;49.528;8.666;2022-12-17T05:26:27;-7.60;99.90
5554;DHT22;2800;49.528;8.666;2022-12-17T05:29:12;-7.60;99.90
5554;DHT22;2800;49.528;8.666;2022-12-17T05:31:56;-7.60;99.90
5554;DHT22;2800;49.528;8.666;2022-12-17T05:34:40;-7.70;99.90
5554;DHT22;2800;49.528;8.666;2022-12-17T05:37:24;-7.60;99.90
5554;DHT22;2800;49.528;8.666;2022-12-17T05:40:09;-7.60;99.90
5554;DHT22;2800;49.528;8.666;2022-12-17T05:43:02;-7.60;99.90
5554;DHT22;2800;49.528;8.666;2022-12-17T05:45:48;-7.60;99.90
5554;DHT22;2800;49.528;8.666;2022-12-17T05:48:32;-7.40;99.90
5554;DHT22;2800;49.528;8.666;2022-12-17T05:51:18;-7.40;99.90
5554;DHT22;2800;49.528;8.666;2022-12-17T05:54:02;-7.30;99.90
5554;DHT22;2800;49.528;8.666;2022-12-17T05:56:46;-7.30;99.90
5554;DHT22;2800;49.528;8.666;2022-12-17T05:59:30;-7.40;99.90
5554;DHT22;2800;49.528;8.666;2022-12-17T06:02:14;-7.50;99.90
5554;DHT22;2800;49.528;8.666;2022-12-17T06:04:58;-7.50;99.90
5554;DHT22;2800;49.528;8.666;2022-12-17T06:07:42;-7.50;99.90
5554;DHT22;2800;49.528;8.666;2022-12-17T06:10:26;-7.60;99.90
5554;DHT22;2800;49.528;8.666;2022-12-17T06:13:11;-7.60;99.90
5554;DHT22;2800;49.528;8.666;2022-12-17T06:15:55;-7.70;99.90
5554;DHT22;2800;49.528;8.666;2022-12-17T06:18:39;-7.80;99.90
5554;DHT22;2800;49.528;8.666;2022-12-17T06:21:24;-7.80;99.90
5554;DHT22;2800;49.528;8.666;2022-12-17T06:24:08;-7.80;99.90
5554;DHT22;2800;49.528;8.666;2022-12-17T06:26:52;-7.90;99.90
5554;DHT22;2800;49.528;8.666;2022-12-17T06:29:36;-8.00;99.90
5554;DHT22;2800;49.528;8.666;2022-12-17T06:32:21;-8.10;99.90
5554;DHT22;2800;49.528;8.666;2022-12-17T06:35:05;-8.10;99.90
5554;DHT22;2800;49.528;8.666;2022-12-17T06:38:00;-8.10;99.90
5554;DHT22;2800;49.528;8.666;2022-12-17T06:40:52;-8.20;99.90
5554;DHT22;2800;49.528;8.666;2022-12-17T06:43:36;-8.20;99.90
5554;DHT22;2800;49.528;8.666;2022-12-17T06:46:21;-8.20;99.90
5554;DHT22;2800;49.528;8.666;2022-12-17T06:49:05;-8.20;99.90
5554;DHT22;2800;49.528;8.666;2022-12-17T06:51:49;-8.20;99.90
5554;DHT22;2800;49.528;8.666;2022-12-17T06:54:33;-8.20;99.90
5554;DHT22;2800;49.528;8.666;2022-12-17T06:57:17;-8.20;99.90
5554;DHT22;2800;49.528;8.666;2022-12-17T07:00:02;-8.20;99.90
5554;DHT22;2800;49.528;8.666;2022-12-17T07:02:46;-8.30;99.90
5554;DHT22;2800;49.528;8.666;2022-12-17T07:05:30;-8.30;99.90
5554;DHT22;2800;49.528;8.666;2022-12-17T07:08:14;-8.40;99.90
5554;DHT22;2800;49.528;8.666;2022-12-17T07:10:59;-8.30;99.90
5554;DHT22;2800;49.528;8.666;2022-12-17T07:13:45;-8.40;99.90
5554;DHT22;2800;49.528;8.666;2022-12-17T07:16:29;-8.40;99.90
5554;DHT22;2800;49.528;8.666;2022-12-17T07:19:13;-8.40;99.90
5554;DHT22;2800;49.528;8.666;2022-12-17T07:21:57;-8.30;99.90
5554;DHT22;2800;49.528;8.666;2022-12-17T07:24:41;-8.30;99.90
5554;DHT22;2800;49.528;8.666;2022-12-17T07:27:26;-8.20;99.90
5554;DHT22;2800;49.528;8.666;2022-12-17T07:30:11;-8.40;99.90
5554;DHT22;2800;49.528;8.666;2022-12-17T07:33:00;-8.40;99.90
5554;DHT22;2800;49.528;8.666;2022-12-17T07:35:44;-8.40;99.90
5554;DHT22;2800;49.528;8.666;2022-12-17T07:38:28;-8.50;99.90
5554;DHT22;2800;49.528;8.666;2022-12-17T07:41:13;-8.60;99.90
5554;DHT22;2800;49.528;8.666;2022-12-17T07:43:57;-8.70;99.90
5554;DHT22;2800;49.528;8.666;2022-12-17T07:46:41;-8.80;99.90
5554;DHT22;2800;49.528;8.666;2022-12-17T07:49:25;-8.90;99.90
5554;DHT22;2800;49.528;8.666;2022-12-17T07:52:09;-8.90;99.90
5554;DHT22;2800;49.528;8.666;2022-12-17T07:54:53;-8.70;99.90
5554;DHT22;2800;49.528;8.666;2022-12-17T07:57:37;-8.60;99.90
5554;DHT22;2800;49.528;8.666;2022-12-17T08:00:21;-8.70;99.90
5554;DHT22;2800;49.528;8.666;2022-12-17T08:03:05;-8.50;99.90
5554;DHT22;2800;49.528;8.666;2022-12-17T08:05:49;-8.40;99.90
5554;DHT22;2800;49.528;8.666;2022-12-17T08:08:33;-8.40;99.90
5554;DHT22;2800;49.528;8.666;2022-12-17T08:11:17;-8.40;99.90
5554;DHT22;2800;49.528;8.666;2022-12-17T08:14:01;-8.40;99.90
5554;DHT22;2800;49.528;8.666;2022-12-17T08:16:45;-8.50;99.90
5554;DHT22;2800;49.528;8.666;2022-12-17T08:19:29;-8.40;99.90
5554;DHT22;2800;49.528;8.666;2022-12-17T08:22:13;-8.40;99.90
5554;DHT22;2800;49.528;8.666;2022-12-17T08:24:57;-8.30;99.90
5554;DHT22;2800;49.528;8.666;2022-12-17T08:27:41;-8.10;99.90
5554;DHT22;2800;49.528;8.666;2022-12-17T08:30:25;-8.00;99.90
5554;DHT22;2800;49.528;8.666;2022-12-17T08:33:09;-8.00;99.90
5554;DHT22;2800;49.528;8.666;2022-12-17T08:35:55;-7.90;99.90
5554;DHT22;2800;49.528;8.666;2022-12-17T08:38:39;-7.70;99.90
5554;DHT22;2800;49.528;8.666;2022-12-17T08:41:23;-7.80;99.90
5554;DHT22;2800;49.528;8.666;2022-12-17T08:44:07;-8.30;99.90
5554;DHT22;2800;49.528;8.666;2022-12-17T08:46:51;-8.30;99.90
5554;DHT22;2800;49.528;8.666;2022-12-17T08:49:35;-8.00;99.90
5554;DHT22;2800;49.528;8.666;2022-12-17T08:52:20;-8.00;99.90
5554;DHT22;2800;49.528;8.666;2022-12-17T08:55:04;-7.90;99.90
5554;DHT22;2800;49.528;8.666;2022-12-17T08:57:53;-8.00;99.90
5554;DHT22;2800;49.528;8.666;2022-12-17T09:00:37;-7.80;99.90
5554;DHT22;2800;49.528;8.666;2022-12-17T09:03:21;-7.70;99.90
5554;DHT22;2800;49.528;8.666;2022-12-17T09:06:05;-7.60;99.90
5554;DHT22;2800;49.528;8.666;2022-12-17T09:08:49;-7.60;99.90
5554;DHT22;2800;49.528;8.666;2022-12-17T09:11:33;-7.50;99.90
5554;DHT22;2800;49.528;8.666;2022-12-17T09:14:17;-7.50;99.90
5554;DHT22;2800;49.528;8.666;2022-12-17T09:17:01;-7.20;99.90
5554;DHT22;2800;49.528;8.666;2022-12-17T09:19:45;-7.00;99.90
5554;DHT22;2800;49.528;8.666;2022-12-17T09:22:29;-7.30;99.90
5554;DHT22;2800;49.528;8.666;2022-12-17T09:25:13;-7.50;99.90
5554;DHT22;2800;49.528;8.666;2022-12-17T09:28:01;-7.50;99.90
5554;DHT22;2800;49.528;8.666;2022-12-17T09:30:46;-7.10;99.90
5554;DHT22;2800;49.528;8.666;2022-12-17T09:33:30;-6.90;99.90
5554;DHT22;2800;49.528;8.666;2022-12-17T09:36:14;-6.90;99.90
5554;DHT22;2800;49.528;8.666;2022-12-17T09:38:58;-6.90;99.90
5554;DHT22;2800;49.528;8.666;2022-12-17T09:44:51;-6.60;99.90
5554;DHT22;2800;49.528;8.666;2022-12-17T09:50:36;-6.70;99.90
5554;DHT22;2800;49.528;8.666;2022-12-17T09:53:27;-6.60;99.90
5554;DHT22;2800;49.528;8.666;2022-12-17T09:56:14;-6.40;99.90
5554;DHT22;2800;49.528;8.666;2022-12-17T09:58:58;-6.70;99.90
5554;DHT22;2800;49.528;8.666;2022-12-17T10:01:42;-6.70;99.90
5554;DHT22;2800;49.528;8.666;2022-12-17T10:04:39;-6.60;99.90
5554;DHT22;2800;49.528;8.666;2022-12-17T10:07:33;-6.40;99.90
5554;DHT22;2800;49.528;8.666;2022-12-17T10:10:24;-6.50;99.90
5554;DHT22;2800;49.528;8.666;2022-12-17T10:13:28;-6.60;99.90
5554;DHT22;2800;49.528;8.666;2022-12-17T10:16:19;-6.40;99.90
5554;DHT22;2800;49.528;8.666;2022-12-17T10:19:05;-6.30;99.90
5554;DHT22;2800;49.528;8.666;2022-12-17T10:22:05;-6.90;99.90
5554;DHT22;2800;49.528;8.666;2022-12-17T10:24:50;-7.20;99.90
5554;DHT22;2800;49.528;8.666;2022-12-17T10:27:34;-7.10;99.90
5554;DHT22;2800;49.528;8.666;2022-12-17T10:30:18;-6.90;99.90
5554;DHT22;2800;49.528;8.666;2022-12-17T10:33:15;-6.70;99.90
5554;DHT22;2800;49.528;8.666;2022-12-17T10:36:02;-6.70;99.90
5554;DHT22;2800;49.528;8.666;2022-12-17T10:38:52;-6.80;99.90
5554;DHT22;2800;49.528;8.666;2022-12-17T10:41:40;-6.70;99.90
5554;DHT22;2800;49.528;8.666;2022-12-17T10:44:28;-6.60;99.90
5554;DHT22;2800;49.528;8.666;2022-12-17T10:47:18;-6.80;99.90
5554;DHT22;2800;49.528;8.666;2022-12-17T10:50:15;-6.60;99.90
5554;DHT22;2800;49.528;8.666;2022-12-17T10:53:00;-6.50;99.90
5554;DHT22;2800;49.528;8.666;2022-12-17T10:55:53;-6.40;99.90
5554;DHT22;2800;49.528;8.666;2022-12-17T10:58:44;-6.70;99.90
5554;DHT22;2800;49.528;8.666;2022-12-17T11:01:29;-6.80;99.90
5554;DHT22;2800;49.528;8.666;2022-12-17T11:04:36;-6.60;99.90
5554;DHT22;2800;49.528;8.666;2022-12-17T11:07:27;-6.50;99.90
5554;DHT22;2800;49.528;8.666;2022-12-17T11:10:16;-6.80;99.90
5554;DHT22;2800;49.528;8.666;2022-12-17T11:13:03;-6.90;99.90
5554;DHT22;2800;49.528;8.666;2022-12-17T11:15:55;-6.70;99.90
5554;DHT22;2800;49.528;8.666;2022-12-17T11:18:51;-6.60;99.90
5554;DHT22;2800;49.528;8.666;2022-12-17T11:21:49;-6.30;99.90
5554;DHT22;2800;49.528;8.666;2022-12-17T11:24:43;-6.10;99.90
5554;DHT22;2800;49.528;8.666;2022-12-17T11:27:33;-6.20;99.90
5554;DHT22;2800;49.528;8.666;2022-12-17T11:30:18;-6.20;99.90
5554;DHT22;2800;49.528;8.666;2022-12-17T11:33:21;-6.10;99.90
5554;DHT22;2800;49.528;8.666;2022-12-17T11:36:17;-6.30;99.90
5554;DHT22;2800;49.528;8.666;2022-12-17T11:39:26;-6.10;99.90
5554;DHT22;2800;49.528;8.666;2022-12-17T11:42:31;-5.90;99.90
5554;DHT22;2800;49.528;8.666;2022-12-17T11:45:38;-6.30;99.90
5554;DHT22;2800;49.528;8.666;2022-12-17T11:51:21;-6.10;99.90
5554;DHT22;2800;49.528;8.666;2022-12-17T11:54:28;-6.00;99.90
5554;DHT22;2800;49.528;8.666;2022-12-17T11:57:24;-6.00;99.90
5554;DHT22;2800;49.528;8.666;2022-12-17T12:00:18;-5.90;99.90
5554;DHT22;2800;49.528;8.666;2022-12-17T12:03:26;-5.80;99.90
5554;DHT22;2800;49.528;8.666;2022-12-17T12:09:30;-5.70;99.90
5554;DHT22;2800;49.528;8.666;2022-12-17T12:18:10;-5.60;99.90
5554;DHT22;2800;49.528;8.666;2022-12-17T12:21:03;-5.60;99.90
5554;DHT22;2800;49.528;8.666;2022-12-17T12:30:15;-5.80;99.90
5554;DHT22;2800;49.528;8.666;2022-12-17T12:36:11;-5.70;99.90
5554;DHT22;2800;49.528;8.666;2022-12-17T12:38:57;-5.60;99.90
5554;DHT22;2800;49.528;8.666;2022-12-17T12:41:54;-5.60;99.90
5554;DHT22;2800;49.528;8.666;2022-12-17T12:44:51;-5.60;99.90
5554;DHT22;2800;49.528;8.666;2022-12-17T12:51:02;-5.50;99.90
5554;DHT22;2800;49.528;8.666;2022-12-17T12:53:58;-5.40;99.90
5554;DHT22;2800;49.528;8.666;2022-12-17T12:56:43;-5.40;99.90
5554;DHT22;2800;49.528;8.666;2022-12-17T12:59:29;-5.50;99.90
5554;DHT22;2800;49.528;8.666;2022-12-17T13:02:23;-5.50;99.90
5554;DHT22;2800;49.528;8.666;2022-12-17T13:05:32;-5.50;99.90
5554;DHT22;2800;49.528;8.666;2022-12-17T13:08:18;-5.50;99.90
5554;DHT22;2800;49.528;8.666;2022-12-17T13:10:46;-5.40;99.90
5554;DHT22;2800;49.528;8.666;2022-12-17T13:15:52;-5.50;99.90
5554;DHT22;2800;49.528;8.666;2022-12-17T13:18:34;-5.40;99.90
5554;DHT22;2800;49.528;8.666;2022-12-17T13:23:35;-5.30;99.90
5554;DHT22;2800;49.528;8.666;2022-12-17T13:26:14;-5.40;99.90
5554;DHT22;2800;49.528;8.666;2022-12-17T13:28:41;-5.30;99.90
5554;DHT22;2800;49.528;8.666;2022-12-17T13:31:16;-5.20;99.90
5554;DHT22;2800;49.528;8.666;2022-12-17T13:36:56;-5.10;99.90
5554;DHT22;2800;49.528;8.666;2022-12-17T13:39:35;-5.00;99.90
5554;DHT22;2800;49.528;8.666;2022-12-17T13:42:04;-5.20;99.90
5554;DHT22;2800;49.528;8.666;2022-12-17T13:44:39;-4.90;99.90
5554;DHT22;2800;49.528;8.666;2022-12-17T13:47:20;-5.00;99.90
5554;DHT22;2800;49.528;8.666;2022-12-17T13:49:53;-5.00;99.90
5554;DHT22;2800;49.528;8.666;2022-12-17T13:52:22;-5.10;99.90
5554;DHT22;2800;49.528;8.666;2022-12-17T13:54:48;-5.20;99.90
5554;DHT22;2800;49.528;8.666;2022-12-17T13:57:16;-5.40;99.90
5554;DHT22;2800;49.528;8.666;2022-12-17T13:59:58;-5.70;99.90
5554;DHT22;2800;49.528;8.666;2022-12-17T14:02:27;-5.70;99.90
5554;DHT22;2800;49.528;8.666;2022-12-17T14:04:54;-5.60;99.90
5554;DHT22;2800;49.528;8.666;2022-12-17T14:07:20;-5.80;99.90
5554;DHT22;2800;49.528;8.666;2022-12-17T14:09:47;-5.70;99.90
5554;DHT22;2800;49.528;8.666;2022-12-17T14:12:14;-5.70;99.90
5554;DHT22;2800;49.528;8.666;2022-12-17T14:15:00;-5.70;99.90
5554;DHT22;2800;49.528;8.666;2022-12-17T14:17:27;-5.90;99.90
5554;DHT22;2800;49.528;8.666;2022-12-17T14:20:03;-6.00;99.90
5554;DHT22;2800;49.528;8.666;2022-12-17T14:22:35;-5.80;99.90
5554;DHT22;2800;49.528;8.666;2022-12-17T14:25:04;-5.80;99.90
5554;DHT22;2800;49.528;8.666;2022-12-17T14:27:34;-5.80;99.90
5554;DHT22;2800;49.528;8.666;2022-12-17T14:30:00;-5.80;99.90
5554;DHT22;2800;49.528;8.666;2022-12-17T14:32:33;-5.70;99.90
5554;DHT22;2800;49.528;8.666;2022-12-17T14:34:58;-5.70;99.90
5554;DHT22;2800;49.528;8.666;2022-12-17T14:37:25;-5.70;99.90
5554;DHT22;2800;49.528;8.666;2022-12-17T14:39:54;-5.70;99.90
5554;DHT22;2800;49.528;8.666;2022-12-17T14:42:24;-5.80;99.90
5554;DHT22;2800;49.528;8.666;2022-12-17T14:47:25;-5.90;99.90
5554;DHT22;2800;49.528;8.666;2022-12-17T14:55:00;-6.40;99.90
5554;DHT22;2800;49.528;8.666;2022-12-17T14:57:25;-6.50;99.90
5554;DHT22;2800;49.528;8.666;2022-12-17T14:59:51;-6.40;99.90
5554;DHT22;2800;49.528;8.666;2022-12-17T15:02:25;-6.30;99.90
5554;DHT22;2800;49.528;8.666;2022-12-17T15:04:55;-6.40;99.90
5554;DHT22;2800;49.528;8.666;2022-12-17T15:07:24;-6.30;99.90
5554;DHT22;2800;49.528;8.666;2022-12-17T15:09:51;-6.40;99.90
5554;DHT22;2800;49.528;8.666;2022-12-17T15:12:18;-6.50;99.90
5554;DHT22;2800;49.528;8.666;2022-12-17T15:14:43;-6.60;99.90
5554;DHT22;2800;49.528;8.666;2022-12-17T15:17:10;-6.50;99.90
5554;DHT22;2800;49.528;8.666;2022-12-17T15:19:36;-6.30;99.90
5554;DHT22;2800;49.528;8.666;2022-12-17T15:22:02;-6.30;99.90
5554;DHT22;2800;49.528;8.666;2022-12-17T15:24:28;-6.20;99.90
5554;DHT22;2800;49.528;8.666;2022-12-17T15:26:54;-6.10;99.90
5554;DHT22;2800;49.528;8.666;2022-12-17T15:29:19;-6.10;99.90
5554;DHT22;2800;49.528;8.666;2022-12-17T15:31:45;-6.10;99.90
5554;DHT22;2800;49.528;8.666;2022-12-17T15:34:11;-6.20;99.90
5554;DHT22;2800;49.528;8.666;2022-12-17T15:36:37;-6.20;99.90
5554;DHT22;2800;49.528;8.666;2022-12-17T15:39:03;-6.20;99.90
5554;DHT22;2800;49.528;8.666;2022-12-17T15:41:30;-6.20;99.90
5554;DHT22;2800;49.528;8.666;2022-12-17T15:44:15;-6.10;99.90
5554;DHT22;2800;49.528;8.666;2022-12-17T15:46:40;-6.20;99.90
5554;DHT22;2800;49.528;8.666;2022-12-17T15:49:06;-6.10;99.90
5554;DHT22;2800;49.528;8.666;2022-12-17T15:51:31;-6.10;99.90
5554;DHT22;2800;49.528;8.666;2022-12-17T15:53:57;-6.10;99.90
5554;DHT22;2800;49.528;8.666;2022-12-17T15:56:24;-6.20;99.90
5554;DHT22;2800;49.528;8.666;2022-12-17T15:58:50;-6.30;99.90
5554;DHT22;2800;49.528;8.666;2022-12-17T16:01:16;-6.20;99.90
5554;DHT22;2800;49.528;8.666;2022-12-17T16:03:41;-6.30;99.90
5554;DHT22;2800;49.528;8.666;2022-12-17T16:06:07;-6.30;99.90
5554;DHT22;2800;49.528;8.666;2022-12-17T16:08:33;-6.40;99.90
5554;DHT22;2800;49.528;8.666;2022-12-17T16:10:58;-6.30;99.90
5554;DHT22;2800;49.528;8.666;2022-12-17T16:13:24;-6.30;99.90
5554;DHT22;2800;49.528;8.666;2022-12-17T16:15:56;-6.30;99.90
5554;DHT22;2800;49.528;8.666;2022-12-17T16:18:22;-6.30;99.90
5554;DHT22;2800;49.528;8.666;2022-12-17T16:20:48;-6.30;99.90
5554;DHT22;2800;49.528;8.666;2022-12-17T16:23:14;-6.40;99.90
5554;DHT22;2800;49.528;8.666;2022-12-17T16:25:39;-6.50;99.90
5554;DHT22;2800;49.528;8.666;2022-12-17T16:28:05;-6.60;99.90
5554;DHT22;2800;49.528;8.666;2022-12-17T16:30:30;-6.70;99.90
5554;DHT22;2800;49.528;8.666;2022-12-17T16:32:59;-6.70;99.90
5554;DHT22;2800;49.528;8.666;2022-12-17T16:35:25;-6.80;99.90
5554;DHT22;2800;49.528;8.666;2022-12-17T16:37:52;-6.70;99.90
5554;DHT22;2800;49.528;8.666;2022-12-17T16:40:18;-6.70;99.90
5554;DHT22;2800;49.528;8.666;2022-12-17T16:42:44;-6.70;99.90
5554;DHT22;2800;49.528;8.666;2022-12-17T16:45:10;-6.70;99.90
5554;DHT22;2800;49.528;8.666;2022-12-17T16:47:35;-6.90;99.90
5554;DHT22;2800;49.528;8.666;2022-12-17T16:50:01;-6.80;99.90
5554;DHT22;2800;49.528;8.666;2022-12-17T16:52:26;-6.80;99.90
5554;DHT22;2800;49.528;8.666;2022-12-17T16:54:52;-6.90;99.90
5554;DHT22;2800;49.528;8.666;2022-12-17T16:57:17;-6.80;99.90
5554;DHT22;2800;49.528;8.666;2022-12-17T16:59:43;-6.80;99.90
5554;DHT22;2800;49.528;8.666;2022-12-17T17:02:12;-6.70;99.90
5554;DHT22;2800;49.528;8.666;2022-12-17T17:04:38;-6.70;99.90
5554;DHT22;2800;49.528;8.666;2022-12-17T17:07:03;-6.60;99.90
5554;DHT22;2800;49.528;8.666;2022-12-17T17:09:29;-6.50;99.90
5554;DHT22;2800;49.528;8.666;2022-12-17T17:11:56;-6.50;99.90
5554;DHT22;2800;49.528;8.666;2022-12-17T17:14:23;-6.50;99.90
5554;DHT22;2800;49.528;8.666;2022-12-17T17:16:48;-6.40;99.90
5554;DHT22;2800;49.528;8.666;2022-12-17T17:19:14;-6.00;99.90
5554;DHT22;2800;49.528;8.666;2022-12-17T17:21:43;-6.10;99.90
5554;DHT22;2800;49.528;8.666;2022-12-17T17:24:13;-6.30;99.90
5554;DHT22;2800;49.528;8.666;2022-12-17T17:26:42;-6.40;99.90
5554;DHT22;2800;49.528;8.666;2022-12-17T17:29:08;-6.40;99.90
5554;DHT22;2800;49.528;8.666;2022-12-17T17:31:35;-6.40;99.90
5554;DHT22;2800;49.528;8.666;2022-12-17T17:34:00;-6.50;99.90
5554;DHT22;2800;49.528;8.666;2022-12-17T17:36:29;-6.50;99.90
5554;DHT22;2800;49.528;8.666;2022-12-17T17:38:57;-6.50;99.90
5554;DHT22;2800;49.528;8.666;2022-12-17T17:41:25;-6.60;99.90
5554;DHT22;2800;49.528;8.666;2022-12-17T17:43:53;-6.60;99.90
5554;DHT22;2800;49.528;8.666;2022-12-17T17:46:19;-6.60;99.90
5554;DHT22;2800;49.528;8.666;2022-12-17T17:48:46;-6.60;99.90
5554;DHT22;2800;49.528;8.666;2022-12-17T17:51:17;-6.70;99.90
5554;DHT22;2800;49.528;8.666;2022-12-17T17:53:44;-7.20;99.90
5554;DHT22;2800;49.528;8.666;2022-12-17T17:56:13;-7.30;99.90
5554;DHT22;2800;49.528;8.666;2022-12-17T17:58:42;-7.30;99.90
5554;DHT22;2800;49.528;8.666;2022-12-17T18:01:10;-7.40;99.90
5554;DHT22;2800;49.528;8.666;2022-12-17T18:03:35;-7.30;99.90
5554;DHT22;2800;49.528;8.666;2022-12-17T18:06:03;-7.20;99.90
5554;DHT22;2800;49.528;8.666;2022-12-17T18:08:33;-7.10;99.90
5554;DHT22;2800;49.528;8.666;2022-12-17T18:11:00;-7.00;99.90
5554;DHT22;2800;49.528;8.666;2022-12-17T18:13:26;-6.90;99.90
5554;DHT22;2800;49.528;8.666;2022-12-17T18:16:11;-6.90;99.90
5554;DHT22;2800;49.528;8.666;2022-12-17T18:18:37;-6.80;99.90
5554;DHT22;2800;49.528;8.666;2022-12-17T18:21:11;-6.80;99.90